LIBF/FOG METAR and TAF weather

Enter ICAO airport designator
Station Type Date Time Source
LIBF METAR 2018/12/10 08:50 UTC NOAA

LIBF 100850Z 30016KT CAVOK 14/03 Q1012


Station Type Date Time Source
LIBF Decoded METAR 2018/12/10 08:50 UTC NOAA

Station name not available
Dec 10, 2018 - 03:50 AM EST / 2018.12.10 0850 UTC
Wind: from the WNW (300 degrees) at 18 MPH (16 KT):0
Visibility: greater than 7 mile(s):0
Temperature: 57 F (14 C)
Dew Point: 37 F (3 C)
Relative Humidity: 47%
Pressure (altimeter): 29.88 in. Hg (1012 hPa)
ob: LIBF 100850Z 30016KT CAVOK 14/03 Q1012
cycle: 9

Station Type Date Time Source
LIBF TAF 2015/04/03 06:00 UTC NOAA

TAF LIBF 030500Z 0306/0406 35014KT 9999 FEW030


Example: see airport list